sensor_id;sensor_type;location;lat;lon;timestamp;P1;durP1;ratioP1;P2;durP2;ratioP2
5904;SDS011;2978;42.012;24.880;2022-09-06T00:00:53;3.37;;;2.30;;
5904;SDS011;2978;42.012;24.880;2022-09-06T00:03:18;4.37;;;2.70;;
5904;SDS011;2978;42.012;24.880;2022-09-06T00:05:44;5.73;;;2.40;;
5904;SDS011;2978;42.012;24.880;2022-09-06T00:08:09;5.17;;;3.00;;
5904;SDS011;2978;42.012;24.880;2022-09-06T00:10:34;5.70;;;2.67;;
5904;SDS011;2978;42.012;24.880;2022-09-06T00:13:05;3.37;;;2.70;;
5904;SDS011;2978;42.012;24.880;2022-09-06T00:15:32;5.60;;;2.57;;
5904;SDS011;2978;42.012;24.880;2022-09-06T00:17:59;8.00;;;2.70;;
5904;SDS011;2978;42.012;24.880;2022-09-06T00:20:28;4.53;;;2.53;;
5904;SDS011;2978;42.012;24.880;2022-09-06T00:22:58;4.20;;;2.50;;
5904;SDS011;2978;42.012;24.880;2022-09-06T00:25:25;4.73;;;2.47;;
5904;SDS011;2978;42.012;24.880;2022-09-06T00:27:56;3.80;;;2.60;;
5904;SDS011;2978;42.012;24.880;2022-09-06T00:30:23;3.07;;;2.40;;
5904;SDS011;2978;42.012;24.880;2022-09-06T00:32:49;6.23;;;2.70;;
5904;SDS011;2978;42.012;24.880;2022-09-06T00:35:15;3.90;;;2.50;;
5904;SDS011;2978;42.012;24.880;2022-09-06T00:37:42;3.47;;;2.60;;
5904;SDS011;2978;42.012;24.880;2022-09-06T00:40:07;3.93;;;2.40;;
5904;SDS011;2978;42.012;24.880;2022-09-06T00:42:33;9.70;;;2.67;;
5904;SDS011;2978;42.012;24.880;2022-09-06T00:44:59;5.70;;;2.57;;
5904;SDS011;2978;42.012;24.880;2022-09-06T00:47:25;4.13;;;2.43;;
5904;SDS011;2978;42.012;24.880;2022-09-06T00:49:52;4.00;;;2.90;;
5904;SDS011;2978;42.012;24.880;2022-09-06T00:52:20;7.10;;;2.87;;
5904;SDS011;2978;42.012;24.880;2022-09-06T00:54:47;4.90;;;2.70;;
5904;SDS011;2978;42.012;24.880;2022-09-06T00:57:15;3.23;;;2.30;;
5904;SDS011;2978;42.012;24.880;2022-09-06T00:59:42;2.80;;;2.40;;
5904;SDS011;2978;42.012;24.880;2022-09-06T01:02:09;5.17;;;3.10;;
5904;SDS011;2978;42.012;24.880;2022-09-06T01:04:36;5.37;;;2.90;;
5904;SDS011;2978;42.012;24.880;2022-09-06T01:20:50;4.80;;;2.77;;
5904;SDS011;2978;42.012;24.880;2022-09-06T01:23:36;5.60;;;2.70;;
5904;SDS011;2978;42.012;24.880;2022-09-06T01:28:48;5.10;;;2.50;;
5904;SDS011;2978;42.012;24.880;2022-09-06T01:31:32;3.90;;;2.70;;
5904;SDS011;2978;42.012;24.880;2022-09-06T01:36:38;7.67;;;3.13;;
5904;SDS011;2978;42.012;24.880;2022-09-06T01:39:04;9.80;;;2.60;;
5904;SDS011;2978;42.012;24.880;2022-09-06T01:41:30;2.33;;;2.10;;
5904;SDS011;2978;42.012;24.880;2022-09-06T01:43:56;4.00;;;2.80;;
5904;SDS011;2978;42.012;24.880;2022-09-06T01:46:29;8.63;;;3.00;;
5904;SDS011;2978;42.012;24.880;2022-09-06T01:57:45;5.33;;;2.30;;
5904;SDS011;2978;42.012;24.880;2022-09-06T02:00:27;7.30;;;3.40;;
5904;SDS011;2978;42.012;24.880;2022-09-06T02:05:40;3.43;;;2.83;;
5904;SDS011;2978;42.012;24.880;2022-09-06T02:08:11;4.33;;;2.40;;
5904;SDS011;2978;42.012;24.880;2022-09-06T02:10:45;5.63;;;3.17;;
5904;SDS011;2978;42.012;24.880;2022-09-06T02:13:18;5.93;;;2.67;;
5904;SDS011;2978;42.012;24.880;2022-09-06T02:15:52;4.50;;;2.83;;
5904;SDS011;2978;42.012;24.880;2022-09-06T02:18:23;3.50;;;2.60;;
5904;SDS011;2978;42.012;24.880;2022-09-06T02:21:10;7.50;;;2.80;;
5904;SDS011;2978;42.012;24.880;2022-09-06T02:23:39;7.43;;;3.00;;
5904;SDS011;2978;42.012;24.880;2022-09-06T02:26:08;5.37;;;2.90;;
5904;SDS011;2978;42.012;24.880;2022-09-06T02:28:38;4.20;;;2.60;;
5904;SDS011;2978;42.012;24.880;2022-09-06T02:31:05;3.03;;;2.70;;
5904;SDS011;2978;42.012;24.880;2022-09-06T02:33:37;2.57;;;2.10;;
5904;SDS011;2978;42.012;24.880;2022-09-06T02:36:05;7.33;;;2.60;;
5904;SDS011;2978;42.012;24.880;2022-09-06T02:38:33;9.50;;;2.73;;
5904;SDS011;2978;42.012;24.880;2022-09-06T02:41:01;5.97;;;2.80;;
5904;SDS011;2978;42.012;24.880;2022-09-06T02:43:29;5.80;;;3.00;;
5904;SDS011;2978;42.012;24.880;2022-09-06T02:45:54;4.83;;;2.17;;
5904;SDS011;2978;42.012;24.880;2022-09-06T02:48:20;7.20;;;2.73;;
5904;SDS011;2978;42.012;24.880;2022-09-06T02:50:46;4.93;;;2.70;;
5904;SDS011;2978;42.012;24.880;2022-09-06T02:53:12;9.37;;;2.90;;
5904;SDS011;2978;42.012;24.880;2022-09-06T02:55:39;7.80;;;2.93;;
5904;SDS011;2978;42.012;24.880;2022-09-06T02:58:07;5.80;;;2.87;;
5904;SDS011;2978;42.012;24.880;2022-09-06T03:00:34;7.13;;;2.87;;
5904;SDS011;2978;42.012;24.880;2022-09-06T03:02:59;4.37;;;2.97;;
5904;SDS011;2978;42.012;24.880;2022-09-06T03:05:25;7.10;;;2.70;;
5904;SDS011;2978;42.012;24.880;2022-09-06T03:07:52;4.80;;;2.70;;
5904;SDS011;2978;42.012;24.880;2022-09-06T03:10:19;6.33;;;3.37;;
5904;SDS011;2978;42.012;24.880;2022-09-06T03:12:45;6.90;;;2.57;;
5904;SDS011;2978;42.012;24.880;2022-09-06T03:15:11;5.23;;;2.80;;
5904;SDS011;2978;42.012;24.880;2022-09-06T03:17:39;4.40;;;2.60;;
5904;SDS011;2978;42.012;24.880;2022-09-06T03:20:04;4.23;;;2.80;;
5904;SDS011;2978;42.012;24.880;2022-09-06T03:22:31;7.40;;;3.03;;
5904;SDS011;2978;42.012;24.880;2022-09-06T03:24:56;3.50;;;2.60;;
5904;SDS011;2978;42.012;24.880;2022-09-06T03:27:22;4.40;;;3.10;;
5904;SDS011;2978;42.012;24.880;2022-09-06T03:29:48;3.20;;;2.47;;
5904;SDS011;2978;42.012;24.880;2022-09-06T03:32:13;4.63;;;2.77;;
5904;SDS011;2978;42.012;24.880;2022-09-06T03:34:39;16.47;;;2.90;;
5904;SDS011;2978;42.012;24.880;2022-09-06T03:37:04;6.50;;;2.60;;
5904;SDS011;2978;42.012;24.880;2022-09-06T03:39:30;9.77;;;2.63;;
5904;SDS011;2978;42.012;24.880;2022-09-06T03:41:56;9.97;;;3.50;;
5904;SDS011;2978;42.012;24.880;2022-09-06T03:44:21;5.83;;;3.23;;
5904;SDS011;2978;42.012;24.880;2022-09-06T03:46:47;4.50;;;2.90;;
5904;SDS011;2978;42.012;24.880;2022-09-06T03:49:12;6.87;;;3.40;;
5904;SDS011;2978;42.012;24.880;2022-09-06T03:51:38;5.40;;;3.00;;
5904;SDS011;2978;42.012;24.880;2022-09-06T03:54:03;8.60;;;3.40;;
5904;SDS011;2978;42.012;24.880;2022-09-06T03:56:29;6.53;;;2.77;;
5904;SDS011;2978;42.012;24.880;2022-09-06T03:58:54;8.83;;;3.63;;
5904;SDS011;2978;42.012;24.880;2022-09-06T04:01:19;11.50;;;3.67;;
5904;SDS011;2978;42.012;24.880;2022-09-06T04:03:45;11.83;;;3.80;;
5904;SDS011;2978;42.012;24.880;2022-09-06T04:06:10;6.83;;;3.40;;
5904;SDS011;2978;42.012;24.880;2022-09-06T04:08:37;10.33;;;2.70;;
5904;SDS011;2978;42.012;24.880;2022-09-06T04:11:03;8.40;;;3.10;;
5904;SDS011;2978;42.012;24.880;2022-09-06T04:13:29;7.97;;;3.00;;
5904;SDS011;2978;42.012;24.880;2022-09-06T04:15:56;4.93;;;3.10;;
5904;SDS011;2978;42.012;24.880;2022-09-06T04:18:21;5.30;;;2.83;;
5904;SDS011;2978;42.012;24.880;2022-09-06T04:20:48;4.57;;;2.63;;
5904;SDS011;2978;42.012;24.880;2022-09-06T04:23:15;9.93;;;3.50;;
5904;SDS011;2978;42.012;24.880;2022-09-06T04:25:44;6.17;;;3.10;;
5904;SDS011;2978;42.012;24.880;2022-09-06T04:28:10;3.53;;;3.23;;
5904;SDS011;2978;42.012;24.880;2022-09-06T04:30:36;3.20;;;2.70;;
5904;SDS011;2978;42.012;24.880;2022-09-06T04:33:01;4.37;;;2.70;;
5904;SDS011;2978;42.012;24.880;2022-09-06T04:35:27;8.87;;;2.97;;
5904;SDS011;2978;42.012;24.880;2022-09-06T04:37:52;8.40;;;3.30;;
5904;SDS011;2978;42.012;24.880;2022-09-06T04:40:18;8.67;;;2.97;;
5904;SDS011;2978;42.012;24.880;2022-09-06T04:42:43;5.30;;;2.63;;
5904;SDS011;2978;42.012;24.880;2022-09-06T04:45:08;7.47;;;3.70;;
5904;SDS011;2978;42.012;24.880;2022-09-06T04:47:34;11.10;;;3.50;;
5904;SDS011;2978;42.012;24.880;2022-09-06T04:50:00;3.77;;;2.80;;
5904;SDS011;2978;42.012;24.880;2022-09-06T04:52:25;10.70;;;2.83;;
5904;SDS011;2978;42.012;24.880;2022-09-06T04:54:51;16.23;;;5.30;;
5904;SDS011;2978;42.012;24.880;2022-09-06T04:57:16;5.50;;;2.80;;
5904;SDS011;2978;42.012;24.880;2022-09-06T04:59:41;3.73;;;2.70;;
5904;SDS011;2978;42.012;24.880;2022-09-06T05:02:07;4.80;;;2.67;;
5904;SDS011;2978;42.012;24.880;2022-09-06T05:04:32;9.03;;;3.33;;
5904;SDS011;2978;42.012;24.880;2022-09-06T05:07:01;15.00;;;3.70;;
5904;SDS011;2978;42.012;24.880;2022-09-06T05:09:28;8.37;;;3.30;;
5904;SDS011;2978;42.012;24.880;2022-09-06T05:11:54;14.53;;;5.90;;
5904;SDS011;2978;42.012;24.880;2022-09-06T05:14:20;5.30;;;3.10;;
5904;SDS011;2978;42.012;24.880;2022-09-06T05:16:45;5.60;;;2.93;;
5904;SDS011;2978;42.012;24.880;2022-09-06T05:19:11;5.30;;;2.83;;
5904;SDS011;2978;42.012;24.880;2022-09-06T05:21:36;4.13;;;2.93;;
5904;SDS011;2978;42.012;24.880;2022-09-06T05:24:02;7.53;;;3.60;;
5904;SDS011;2978;42.012;24.880;2022-09-06T05:26:28;11.80;;;3.80;;
5904;SDS011;2978;42.012;24.880;2022-09-06T05:29:13;6.43;;;3.00;;
5904;SDS011;2978;42.012;24.880;2022-09-06T05:31:39;12.57;;;3.20;;
5904;SDS011;2978;42.012;24.880;2022-09-06T05:34:04;4.60;;;3.00;;
5904;SDS011;2978;42.012;24.880;2022-09-06T05:36:30;7.50;;;3.10;;
5904;SDS011;2978;42.012;24.880;2022-09-06T05:38:56;8.90;;;3.17;;
5904;SDS011;2978;42.012;24.880;2022-09-06T05:41:23;6.63;;;2.70;;
5904;SDS011;2978;42.012;24.880;2022-09-06T05:43:48;7.70;;;2.30;;
5904;SDS011;2978;42.012;24.880;2022-09-06T05:46:17;6.13;;;2.83;;
5904;SDS011;2978;42.012;24.880;2022-09-06T05:48:42;7.10;;;3.23;;
5904;SDS011;2978;42.012;24.880;2022-09-06T05:51:08;15.17;;;4.50;;
5904;SDS011;2978;42.012;24.880;2022-09-06T05:53:39;12.10;;;3.07;;
5904;SDS011;2978;42.012;24.880;2022-09-06T05:56:07;5.50;;;3.97;;
5904;SDS011;2978;42.012;24.880;2022-09-06T05:58:33;9.90;;;3.87;;
5904;SDS011;2978;42.012;24.880;2022-09-06T06:01:16;8.13;;;2.60;;
5904;SDS011;2978;42.012;24.880;2022-09-06T06:03:53;10.27;;;3.13;;
5904;SDS011;2978;42.012;24.880;2022-09-06T06:06:19;7.23;;;2.57;;
5904;SDS011;2978;42.012;24.880;2022-09-06T06:08:45;5.77;;;3.10;;
5904;SDS011;2978;42.012;24.880;2022-09-06T06:11:12;10.20;;;2.43;;
5904;SDS011;2978;42.012;24.880;2022-09-06T06:13:38;8.13;;;3.43;;
5904;SDS011;2978;42.012;24.880;2022-09-06T06:16:05;7.83;;;3.03;;
5904;SDS011;2978;42.012;24.880;2022-09-06T06:18:31;21.43;;;3.57;;
5904;SDS011;2978;42.012;24.880;2022-09-06T06:21:06;7.73;;;2.87;;
5904;SDS011;2978;42.012;24.880;2022-09-06T06:23:41;7.20;;;3.00;;
5904;SDS011;2978;42.012;24.880;2022-09-06T06:26:08;9.77;;;4.03;;
5904;SDS011;2978;42.012;24.880;2022-09-06T06:28:35;13.73;;;5.33;;
5904;SDS011;2978;42.012;24.880;2022-09-06T06:31:01;7.20;;;4.57;;
5904;SDS011;2978;42.012;24.880;2022-09-06T06:33:27;11.53;;;4.80;;
5904;SDS011;2978;42.012;24.880;2022-09-06T06:35:56;11.93;;;3.80;;
5904;SDS011;2978;42.012;24.880;2022-09-06T06:38:30;8.67;;;4.70;;
5904;SDS011;2978;42.012;24.880;2022-09-06T06:40:56;10.10;;;4.73;;
5904;SDS011;2978;42.012;24.880;2022-09-06T06:43:22;9.37;;;4.10;;
5904;SDS011;2978;42.012;24.880;2022-09-06T06:45:48;11.60;;;3.40;;
5904;SDS011;2978;42.012;24.880;2022-09-06T06:48:14;10.23;;;2.90;;
5904;SDS011;2978;42.012;24.880;2022-09-06T06:50:40;9.90;;;3.17;;
5904;SDS011;2978;42.012;24.880;2022-09-06T06:53:05;17.47;;;3.47;;
5904;SDS011;2978;42.012;24.880;2022-09-06T06:55:30;9.90;;;3.47;;
5904;SDS011;2978;42.012;24.880;2022-09-06T06:57:58;3.53;;;2.80;;
5904;SDS011;2978;42.012;24.880;2022-09-06T07:00:24;4.80;;;3.10;;
5904;SDS011;2978;42.012;24.880;2022-09-06T07:02:50;9.40;;;3.20;;
5904;SDS011;2978;42.012;24.880;2022-09-06T07:05:16;9.37;;;3.07;;
5904;SDS011;2978;42.012;24.880;2022-09-06T07:07:42;11.27;;;5.07;;
5904;SDS011;2978;42.012;24.880;2022-09-06T07:10:08;8.40;;;4.30;;
5904;SDS011;2978;42.012;24.880;2022-09-06T07:12:34;11.60;;;4.10;;
5904;SDS011;2978;42.012;24.880;2022-09-06T07:15:00;14.20;;;4.27;;
5904;SDS011;2978;42.012;24.880;2022-09-06T07:17:25;10.80;;;4.90;;
5904;SDS011;2978;42.012;24.880;2022-09-06T07:19:52;8.40;;;3.93;;
5904;SDS011;2978;42.012;24.880;2022-09-06T07:22:17;14.67;;;4.20;;
5904;SDS011;2978;42.012;24.880;2022-09-06T07:24:42;16.50;;;4.23;;
5904;SDS011;2978;42.012;24.880;2022-09-06T07:27:08;10.77;;;3.80;;
5904;SDS011;2978;42.012;24.880;2022-09-06T07:29:33;11.13;;;4.70;;
5904;SDS011;2978;42.012;24.880;2022-09-06T07:31:59;11.60;;;3.90;;
5904;SDS011;2978;42.012;24.880;2022-09-06T07:34:24;8.27;;;3.93;;
5904;SDS011;2978;42.012;24.880;2022-09-06T07:36:56;14.43;;;4.63;;
5904;SDS011;2978;42.012;24.880;2022-09-06T07:39:21;20.83;;;5.47;;
5904;SDS011;2978;42.012;24.880;2022-09-06T07:41:47;8.60;;;4.53;;
5904;SDS011;2978;42.012;24.880;2022-09-06T07:44:12;8.77;;;4.40;;
5904;SDS011;2978;42.012;24.880;2022-09-06T07:46:38;8.90;;;4.63;;
5904;SDS011;2978;42.012;24.880;2022-09-06T07:49:04;8.53;;;4.97;;
5904;SDS011;2978;42.012;24.880;2022-09-06T07:51:29;15.23;;;4.10;;
5904;SDS011;2978;42.012;24.880;2022-09-06T07:53:55;6.80;;;4.17;;
5904;SDS011;2978;42.012;24.880;2022-09-06T07:56:21;10.60;;;4.10;;
5904;SDS011;2978;42.012;24.880;2022-09-06T07:58:47;6.67;;;4.10;;
5904;SDS011;2978;42.012;24.880;2022-09-06T08:03:39;5.67;;;3.00;;
5904;SDS011;2978;42.012;24.880;2022-09-06T08:06:05;12.73;;;4.30;;
5904;SDS011;2978;42.012;24.880;2022-09-06T08:08:30;5.40;;;4.03;;
5904;SDS011;2978;42.012;24.880;2022-09-06T08:10:56;13.83;;;3.60;;
5904;SDS011;2978;42.012;24.880;2022-09-06T08:13:21;22.20;;;4.77;;
5904;SDS011;2978;42.012;24.880;2022-09-06T08:15:47;8.03;;;3.97;;
5904;SDS011;2978;42.012;24.880;2022-09-06T08:18:12;9.60;;;3.97;;
5904;SDS011;2978;42.012;24.880;2022-09-06T08:24:06;12.93;;;4.17;;
5904;SDS011;2978;42.012;24.880;2022-09-06T08:26:35;8.83;;;3.97;;
5904;SDS011;2978;42.012;24.880;2022-09-06T08:29:07;5.13;;;3.47;;
5904;SDS011;2978;42.012;24.880;2022-09-06T08:31:34;8.10;;;4.17;;
5904;SDS011;2978;42.012;24.880;2022-09-06T08:34:01;17.07;;;3.83;;
5904;SDS011;2978;42.012;24.880;2022-09-06T08:36:27;9.30;;;4.20;;
5904;SDS011;2978;42.012;24.880;2022-09-06T08:38:55;6.33;;;3.90;;
5904;SDS011;2978;42.012;24.880;2022-09-06T08:41:22;5.47;;;3.43;;
5904;SDS011;2978;42.012;24.880;2022-09-06T08:44:02;8.60;;;4.03;;
5904;SDS011;2978;42.012;24.880;2022-09-06T08:46:36;9.57;;;3.97;;
5904;SDS011;2978;42.012;24.880;2022-09-06T08:49:04;5.53;;;3.20;;
5904;SDS011;2978;42.012;24.880;2022-09-06T08:54:07;8.70;;;3.40;;
5904;SDS011;2978;42.012;24.880;2022-09-06T08:56:44;10.90;;;3.50;;
5904;SDS011;2978;42.012;24.880;2022-09-06T08:59:27;6.80;;;3.40;;
5904;SDS011;2978;42.012;24.880;2022-09-06T09:02:08;8.93;;;3.70;;
5904;SDS011;2978;42.012;24.880;2022-09-06T09:04:53;6.80;;;3.43;;
5904;SDS011;2978;42.012;24.880;2022-09-06T09:07:25;8.40;;;2.90;;
5904;SDS011;2978;42.012;24.880;2022-09-06T09:09:54;8.87;;;3.47;;
5904;SDS011;2978;42.012;24.880;2022-09-06T09:12:22;11.33;;;4.80;;
5904;SDS011;2978;42.012;24.880;2022-09-06T09:14:53;8.20;;;3.30;;
5904;SDS011;2978;42.012;24.880;2022-09-06T09:17:26;11.43;;;3.30;;
5904;SDS011;2978;42.012;24.880;2022-09-06T09:19:54;5.10;;;3.20;;
5904;SDS011;2978;42.012;24.880;2022-09-06T09:22:20;13.13;;;4.00;;
5904;SDS011;2978;42.012;24.880;2022-09-06T09:24:48;10.53;;;3.33;;
5904;SDS011;2978;42.012;24.880;2022-09-06T09:27:17;4.10;;;3.20;;
5904;SDS011;2978;42.012;24.880;2022-09-06T09:32:30;4.30;;;3.17;;
5904;SDS011;2978;42.012;24.880;2022-09-06T09:37:58;4.47;;;3.07;;
5904;SDS011;2978;42.012;24.880;2022-09-06T09:45:46;4.20;;;2.93;;
5904;SDS011;2978;42.012;24.880;2022-09-06T09:48:46;7.43;;;2.93;;
5904;SDS011;2978;42.012;24.880;2022-09-06T09:51:24;7.00;;;3.63;;
5904;SDS011;2978;42.012;24.880;2022-09-06T09:56:18;5.67;;;2.80;;
5904;SDS011;2978;42.012;24.880;2022-09-06T09:59:17;8.50;;;3.60;;
5904;SDS011;2978;42.012;24.880;2022-09-06T10:01:45;7.83;;;2.43;;
5904;SDS011;2978;42.012;24.880;2022-09-06T10:04:17;7.63;;;2.60;;
5904;SDS011;2978;42.012;24.880;2022-09-06T10:06:45;6.10;;;3.40;;
5904;SDS011;2978;42.012;24.880;2022-09-06T10:09:17;7.67;;;3.40;;
5904;SDS011;2978;42.012;24.880;2022-09-06T10:11:49;6.47;;;3.20;;
5904;SDS011;2978;42.012;24.880;2022-09-06T10:14:24;6.20;;;3.60;;
5904;SDS011;2978;42.012;24.880;2022-09-06T10:16:51;7.77;;;3.60;;
5904;SDS011;2978;42.012;24.880;2022-09-06T10:19:36;7.20;;;4.47;;
5904;SDS011;2978;42.012;24.880;2022-09-06T10:27:38;7.63;;;3.20;;
5904;SDS011;2978;42.012;24.880;2022-09-06T10:30:27;12.60;;;4.17;;
5904;SDS011;2978;42.012;24.880;2022-09-06T10:35:36;7.47;;;3.77;;
5904;SDS011;2978;42.012;24.880;2022-09-06T10:40:41;4.93;;;3.70;;
5904;SDS011;2978;42.012;24.880;2022-09-06T10:43:20;3.70;;;2.83;;
5904;SDS011;2978;42.012;24.880;2022-09-06T10:45:49;6.40;;;3.90;;
5904;SDS011;2978;42.012;24.880;2022-09-06T10:48:30;6.90;;;3.70;;
5904;SDS011;2978;42.012;24.880;2022-09-06T10:51:04;4.90;;;3.03;;
5904;SDS011;2978;42.012;24.880;2022-09-06T11:01:38;5.07;;;4.10;;
5904;SDS011;2978;42.012;24.880;2022-09-06T11:04:09;4.20;;;2.80;;
5904;SDS011;2978;42.012;24.880;2022-09-06T11:06:43;7.23;;;3.70;;
5904;SDS011;2978;42.012;24.880;2022-09-06T11:12:06;5.07;;;2.97;;
5904;SDS011;2978;42.012;24.880;2022-09-06T11:14:36;5.60;;;3.50;;
5904;SDS011;2978;42.012;24.880;2022-09-06T11:17:11;6.77;;;4.00;;
5904;SDS011;2978;42.012;24.880;2022-09-06T11:19:47;4.63;;;2.83;;
5904;SDS011;2978;42.012;24.880;2022-09-06T11:22:38;5.97;;;4.10;;
5904;SDS011;2978;42.012;24.880;2022-09-06T11:27:55;3.77;;;2.73;;
5904;SDS011;2978;42.012;24.880;2022-09-06T11:30:23;4.43;;;2.20;;
5904;SDS011;2978;42.012;24.880;2022-09-06T11:33:00;2.93;;;2.00;;
5904;SDS011;2978;42.012;24.880;2022-09-06T11:35:29;4.63;;;2.40;;
5904;SDS011;2978;42.012;24.880;2022-09-06T11:37:58;4.50;;;2.70;;
5904;SDS011;2978;42.012;24.880;2022-09-06T11:40:33;3.63;;;2.20;;
5904;SDS011;2978;42.012;24.880;2022-09-06T11:45:49;6.23;;;2.90;;
5904;SDS011;2978;42.012;24.880;2022-09-06T11:51:29;6.23;;;2.20;;
5904;SDS011;2978;42.012;24.880;2022-09-06T11:58:55;5.70;;;2.80;;
5904;SDS011;2978;42.012;24.880;2022-09-06T12:06:20;5.70;;;2.20;;
5904;SDS011;2978;42.012;24.880;2022-09-06T12:08:59;4.37;;;2.40;;
5904;SDS011;2978;42.012;24.880;2022-09-06T12:11:44;2.60;;;2.20;;
5904;SDS011;2978;42.012;24.880;2022-09-06T12:27:22;4.53;;;2.43;;
5904;SDS011;2978;42.012;24.880;2022-09-06T12:30:11;3.87;;;2.30;;
5904;SDS011;2978;42.012;24.880;2022-09-06T12:35:12;5.20;;;3.00;;
5904;SDS011;2978;42.012;24.880;2022-09-06T12:40:38;4.37;;;2.40;;
5904;SDS011;2978;42.012;24.880;2022-09-06T12:43:09;3.93;;;2.10;;
5904;SDS011;2978;42.012;24.880;2022-09-06T12:45:43;2.97;;;2.03;;
5904;SDS011;2978;42.012;24.880;2022-09-06T12:48:12;7.80;;;2.23;;
5904;SDS011;2978;42.012;24.880;2022-09-06T12:50:59;3.50;;;2.27;;
5904;SDS011;2978;42.012;24.880;2022-09-06T12:53:31;3.77;;;2.07;;
5904;SDS011;2978;42.012;24.880;2022-09-06T12:56:10;3.47;;;2.27;;
5904;SDS011;2978;42.012;24.880;2022-09-06T12:58:36;5.03;;;2.20;;
5904;SDS011;2978;42.012;24.880;2022-09-06T13:01:10;4.37;;;2.13;;
5904;SDS011;2978;42.012;24.880;2022-09-06T13:03:38;6.40;;;2.00;;
5904;SDS011;2978;42.012;24.880;2022-09-06T13:06:05;2.20;;;1.90;;
5904;SDS011;2978;42.012;24.880;2022-09-06T13:08:51;4.67;;;2.30;;
5904;SDS011;2978;42.012;24.880;2022-09-06T13:11:29;4.97;;;1.93;;
5904;SDS011;2978;42.012;24.880;2022-09-06T13:13:58;3.17;;;2.10;;
5904;SDS011;2978;42.012;24.880;2022-09-06T13:16:27;3.20;;;1.83;;
5904;SDS011;2978;42.012;24.880;2022-09-06T13:19:13;5.60;;;2.20;;
5904;SDS011;2978;42.012;24.880;2022-09-06T13:21:44;5.73;;;2.00;;
5904;SDS011;2978;42.012;24.880;2022-09-06T13:24:17;6.30;;;2.00;;
5904;SDS011;2978;42.012;24.880;2022-09-06T13:26:47;6.07;;;2.23;;
5904;SDS011;2978;42.012;24.880;2022-09-06T13:31:45;5.17;;;2.40;;
5904;SDS011;2978;42.012;24.880;2022-09-06T13:34:18;6.07;;;1.90;;
5904;SDS011;2978;42.012;24.880;2022-09-06T13:36:52;4.83;;;2.60;;
5904;SDS011;2978;42.012;24.880;2022-09-06T13:39:30;4.90;;;2.40;;
5904;SDS011;2978;42.012;24.880;2022-09-06T13:42:05;3.70;;;2.17;;
5904;SDS011;2978;42.012;24.880;2022-09-06T13:44:33;2.90;;;1.90;;
5904;SDS011;2978;42.012;24.880;2022-09-06T13:47:00;4.83;;;2.27;;
5904;SDS011;2978;42.012;24.880;2022-09-06T13:49:27;3.53;;;2.30;;
5904;SDS011;2978;42.012;24.880;2022-09-06T13:51:53;3.30;;;2.27;;
5904;SDS011;2978;42.012;24.880;2022-09-06T13:54:22;3.80;;;2.13;;
5904;SDS011;2978;42.012;24.880;2022-09-06T13:56:48;2.90;;;2.07;;
5904;SDS011;2978;42.012;24.880;2022-09-06T13:59:15;6.50;;;2.67;;
5904;SDS011;2978;42.012;24.880;2022-09-06T14:01:43;3.60;;;2.53;;
5904;SDS011;2978;42.012;24.880;2022-09-06T14:04:10;5.30;;;2.10;;
5904;SDS011;2978;42.012;24.880;2022-09-06T14:06:38;3.00;;;2.20;;
5904;SDS011;2978;42.012;24.880;2022-09-06T14:09:04;3.70;;;2.23;;
5904;SDS011;2978;42.012;24.880;2022-09-06T14:11:29;3.80;;;1.90;;
5904;SDS011;2978;42.012;24.880;2022-09-06T14:13:55;5.23;;;2.00;;
5904;SDS011;2978;42.012;24.880;2022-09-06T14:16:20;8.97;;;2.70;;
5904;SDS011;2978;42.012;24.880;2022-09-06T14:18:46;5.13;;;2.73;;
5904;SDS011;2978;42.012;24.880;2022-09-06T14:21:11;5.07;;;2.70;;
5904;SDS011;2978;42.012;24.880;2022-09-06T14:23:37;5.67;;;2.97;;
5904;SDS011;2978;42.012;24.880;2022-09-06T14:26:03;3.33;;;2.40;;
5904;SDS011;2978;42.012;24.880;2022-09-06T14:28:30;4.10;;;2.67;;
5904;SDS011;2978;42.012;24.880;2022-09-06T14:31:10;5.10;;;2.47;;
5904;SDS011;2978;42.012;24.880;2022-09-06T14:33:39;5.77;;;2.63;;
5904;SDS011;2978;42.012;24.880;2022-09-06T14:36:06;6.70;;;2.67;;
5904;SDS011;2978;42.012;24.880;2022-09-06T14:38:40;2.63;;;1.97;;
5904;SDS011;2978;42.012;24.880;2022-09-06T14:41:07;3.57;;;2.80;;
5904;SDS011;2978;42.012;24.880;2022-09-06T14:43:33;4.30;;;2.43;;
5904;SDS011;2978;42.012;24.880;2022-09-06T14:46:06;6.30;;;3.00;;
5904;SDS011;2978;42.012;24.880;2022-09-06T14:48:34;10.50;;;2.60;;
5904;SDS011;2978;42.012;24.880;2022-09-06T14:53:53;5.33;;;2.83;;
5904;SDS011;2978;42.012;24.880;2022-09-06T14:56:20;9.27;;;3.17;;
5904;SDS011;2978;42.012;24.880;2022-09-06T14:58:47;10.03;;;3.13;;
5904;SDS011;2978;42.012;24.880;2022-09-06T15:01:14;5.10;;;3.07;;
5904;SDS011;2978;42.012;24.880;2022-09-06T15:03:42;5.40;;;2.70;;
5904;SDS011;2978;42.012;24.880;2022-09-06T15:06:10;7.60;;;2.37;;
5904;SDS011;2978;42.012;24.880;2022-09-06T15:08:37;4.93;;;2.40;;
5904;SDS011;2978;42.012;24.880;2022-09-06T15:11:02;7.17;;;2.83;;
5904;SDS011;2978;42.012;24.880;2022-09-06T15:13:32;3.87;;;2.83;;
5904;SDS011;2978;42.012;24.880;2022-09-06T15:16:04;8.07;;;2.50;;
5904;SDS011;2978;42.012;24.880;2022-09-06T15:18:31;4.00;;;2.77;;
5904;SDS011;2978;42.012;24.880;2022-09-06T15:20:57;7.30;;;2.93;;
5904;SDS011;2978;42.012;24.880;2022-09-06T15:23:31;4.00;;;2.63;;
5904;SDS011;2978;42.012;24.880;2022-09-06T15:25:57;4.87;;;2.90;;
5904;SDS011;2978;42.012;24.880;2022-09-06T15:28:22;8.03;;;2.90;;
5904;SDS011;2978;42.012;24.880;2022-09-06T15:30:47;4.30;;;2.97;;
5904;SDS011;2978;42.012;24.880;2022-09-06T15:33:13;8.23;;;4.00;;
5904;SDS011;2978;42.012;24.880;2022-09-06T15:35:40;6.90;;;3.57;;
5904;SDS011;2978;42.012;24.880;2022-09-06T15:38:06;4.97;;;3.43;;
5904;SDS011;2978;42.012;24.880;2022-09-06T15:40:32;6.47;;;2.67;;
5904;SDS011;2978;42.012;24.880;2022-09-06T15:42:58;7.63;;;2.83;;
5904;SDS011;2978;42.012;24.880;2022-09-06T15:45:23;7.83;;;3.10;;
5904;SDS011;2978;42.012;24.880;2022-09-06T15:47:49;6.80;;;3.50;;
5904;SDS011;2978;42.012;24.880;2022-09-06T15:50:14;8.57;;;3.10;;
5904;SDS011;2978;42.012;24.880;2022-09-06T15:52:40;7.40;;;2.90;;
5904;SDS011;2978;42.012;24.880;2022-09-06T15:55:06;5.13;;;3.27;;
5904;SDS011;2978;42.012;24.880;2022-09-06T15:57:50;8.43;;;3.50;;
5904;SDS011;2978;42.012;24.880;2022-09-06T16:03:00;4.63;;;2.90;;
5904;SDS011;2978;42.012;24.880;2022-09-06T16:05:25;5.17;;;3.00;;
5904;SDS011;2978;42.012;24.880;2022-09-06T16:07:51;4.93;;;3.07;;
5904;SDS011;2978;42.012;24.880;2022-09-06T16:10:16;4.80;;;3.77;;
5904;SDS011;2978;42.012;24.880;2022-09-06T16:12:42;4.70;;;2.97;;
5904;SDS011;2978;42.012;24.880;2022-09-06T16:15:07;7.03;;;3.57;;
5904;SDS011;2978;42.012;24.880;2022-09-06T16:17:33;7.03;;;3.13;;
5904;SDS011;2978;42.012;24.880;2022-09-06T16:19:59;4.23;;;3.40;;
5904;SDS011;2978;42.012;24.880;2022-09-06T16:22:26;8.07;;;3.40;;
5904;SDS011;2978;42.012;24.880;2022-09-06T16:24:51;5.23;;;3.43;;
5904;SDS011;2978;42.012;24.880;2022-09-06T16:27:17;11.93;;;3.90;;
5904;SDS011;2978;42.012;24.880;2022-09-06T16:29:43;6.27;;;3.40;;
5904;SDS011;2978;42.012;24.880;2022-09-06T16:32:09;10.13;;;3.57;;
5904;SDS011;2978;42.012;24.880;2022-09-06T16:34:34;9.73;;;4.37;;
5904;SDS011;2978;42.012;24.880;2022-09-06T16:37:02;7.13;;;3.47;;
5904;SDS011;2978;42.012;24.880;2022-09-06T16:39:32;7.73;;;3.80;;
5904;SDS011;2978;42.012;24.880;2022-09-06T16:41:58;11.03;;;4.23;;
5904;SDS011;2978;42.012;24.880;2022-09-06T16:44:24;11.07;;;3.50;;
5904;SDS011;2978;42.012;24.880;2022-09-06T16:46:50;5.87;;;3.47;;
5904;SDS011;2978;42.012;24.880;2022-09-06T16:49:16;9.33;;;3.57;;
5904;SDS011;2978;42.012;24.880;2022-09-06T16:51:43;8.67;;;3.43;;
5904;SDS011;2978;42.012;24.880;2022-09-06T16:54:08;6.57;;;3.23;;
5904;SDS011;2978;42.012;24.880;2022-09-06T16:56:34;9.80;;;4.10;;
5904;SDS011;2978;42.012;24.880;2022-09-06T16:59:01;10.90;;;3.50;;
5904;SDS011;2978;42.012;24.880;2022-09-06T17:01:28;14.53;;;3.70;;
5904;SDS011;2978;42.012;24.880;2022-09-06T17:03:55;5.93;;;4.07;;
5904;SDS011;2978;42.012;24.880;2022-09-06T17:06:21;7.90;;;3.37;;
5904;SDS011;2978;42.012;24.880;2022-09-06T17:08:48;11.53;;;3.00;;